Decoded Metar for KSLE (SALEM in OR, USA) (IATA:SLE) | Meteo·Mobile Aviation Weather
aviador You're here:

KSLE Decoded Metar

SALEM in OR, USA
Report Time2018-12-11 08:56:00
UTC Time2018-12-11 09:34:06
Flight Rules vfr VFR
Wind190° at 12 kt
W.Decomp.*RWY 16: 11.7 kt HW 2.7 kt RCW
RWY 13: 8.8 kt HW 8.2 kt RCW
W.Rank190° ranks 3
Current wind is above 190° avg. (8.2)
Visibility9999 m
Phenomena:N/A
Clouds:Overcast 080 Hf
Expected CloudBase > 1,200 ft AGL from Temp-Dew spread
Ceiling8,000 ft
Temp07°C (ISA -8)
Dew Point04°C (81% RH)
AAT1.4°C
QNH1023 hPa
Density Alt-948 ft
Elevation194 ft
Report Wrong Elevation
Raw Report
KSLE 110856Z AUTO 19012KT 10SM OVC080 07/04 A3022 RMK AO2 SLP233
T00670044 58008=

Extra information for KSLE:More info

Metar Taf Metar & Taf Last 4 Metars F.Rules Stats Wind Profile Meteogram Temp Stats Airport Information Weather charts Add Link Nearby VenuesMetar ALERT Operation Metar Decoded Social comments

AIRNAV info for KSLE